Time;durP1;ratioP1;P1;durP2;ratioP2;P2;SDS_P1;SDS_P2;PMS_P1;PMS_P2;Temp;Humidity;BMP_temperature;BMP_pressure;BME280_temperature;BME280_humidity;BME280_pressure;Samples;Min_cycle;Max_cycle;Signal;HPM_P1;HPM_P2
2023/08/21 00:02:16;;;;;;;7.00;6.40;;;;;;;22.82;76.85;100581.98;130607;1259;98065;-77
2023/08/21 00:05:21;;;;;;;7.40;6.70;;;;;;;22.83;76.81;100580.44;130601;1256;98687;-77
2023/08/21 00:08:27;;;;;;;8.20;6.90;;;;;;;22.85;77.08;100576.17;130580;1259;99084;-77
2023/08/21 00:11:32;;;;;;;8.50;6.40;;;;;;;22.84;76.91;100576.65;130485;1259;99170;-77
2023/08/21 00:14:38;;;;;;;6.20;5.50;;;;;;;22.81;77.08;100573.64;130557;1259;97906;-77
2023/08/21 00:17:44;;;;;;;7.00;6.30;;;;;;;22.78;77.07;100570.05;130528;1258;99244;-77
2023/08/21 00:20:49;;;;;;;8.70;7.00;;;;;;;22.78;77.19;100573.04;130589;1256;99007;-77
2023/08/21 00:23:56;;;;;;;9.10;7.00;;;;;;;22.80;77.17;100573.92;130520;1259;97980;-77
2023/08/21 00:27:03;;;;;;;8.40;7.30;;;;;;;22.81;77.11;100569.48;130500;1259;97962;-77
2023/08/21 00:30:11;;;;;;;8.10;7.10;;;;;;;22.80;77.05;100567.33;130522;1256;98761;-77
2023/08/21 00:33:17;;;;;;;7.50;6.80;;;;;;;22.78;77.15;100567.66;130560;1259;99077;-77
2023/08/21 00:36:22;;;;;;;6.70;6.10;;;;;;;22.77;77.41;100567.89;130468;1260;97953;-77
2023/08/21 00:39:29;;;;;;;7.60;6.90;;;;;;;22.76;77.30;100564.77;130481;1258;97961;-77
2023/08/21 00:42:34;;;;;;;8.70;6.80;;;;;;;22.77;77.39;100565.34;130515;1259;98038;-77
2023/08/21 00:45:45;;;;;;;8.10;7.30;;;;;;;22.78;77.44;100570.05;130562;1259;98051;-78
2023/08/21 00:48:51;;;;;;;7.80;6.90;;;;;;;22.77;77.53;100563.84;130255;1261;98416;-79
2023/08/21 00:51:57;;;;;;;8.30;6.60;;;;;;;22.75;77.54;100564.52;130386;1264;129960;-78
2023/08/21 00:55:04;;;;;;;6.90;5.60;;;;;;;22.71;77.59;100569.00;130497;1259;99027;-79
2023/08/21 00:58:12;;;;;;;6.20;5.60;;;;;;;22.68;77.68;100570.70;130558;1259;98048;-78
2023/08/21 01:01:23;;;;;;;8.40;6.20;;;;;;;22.65;77.87;100572.67;130653;1260;97990;-79
2023/08/21 01:04:29;;;;;;;8.40;6.90;;;;;;;22.62;77.80;100570.51;130598;1259;99554;-78
2023/08/21 01:07:44;;;;;;;7.20;6.50;;;;;;;22.57;78.05;100570.19;130568;1258;97971;-78
2023/08/21 01:10:57;;;;;;;7.60;6.50;;;;;;;22.51;78.18;100579.75;130567;1259;99115;-78
2023/08/21 01:14:05;;;;;;;;;;;;;;;22.44;78.32;100584.12;130505;1261;98812;-79
2023/08/21 01:17:14;;;;;;;6.40;5.70;;;;;;;22.37;78.36;100582.34;130561;1258;99145;-78
2023/08/21 01:20:21;;;;;;;7.10;6.40;;;;;;;22.34;78.39;100581.70;130631;1259;97949;-78
2023/08/21 01:23:34;;;;;;;7.60;6.50;;;;;;;22.33;78.50;100581.63;130566;1259;97957;-79
2023/08/21 01:26:40;;;;;;;7.30;6.60;;;;;;;22.33;78.69;100577.70;130620;1258;98063;-78
2023/08/21 01:29:47;;;;;;;8.10;6.80;;;;;;;22.30;78.52;100575.50;130563;1261;98419;-79
2023/08/21 01:33:00;;;;;;;6.60;6.00;;;;;;;22.29;78.63;100576.98;130508;1256;99208;-78
2023/08/21 01:36:06;;;;;;;6.40;5.80;;;;;;;22.25;78.67;100582.07;130591;1254;99138;-77
2023/08/21 01:39:12;;;;;;;6.80;6.10;;;;;;;22.22;78.51;100586.30;130540;1259;98038;-77
2023/08/21 01:42:17;;;;;;;6.50;5.80;;;;;;;22.18;78.61;100580.55;130569;1260;99112;-77
2023/08/21 01:45:23;;;;;;;6.70;6.00;;;;;;;22.16;78.76;100573.75;130557;1259;99096;-77
2023/08/21 01:48:30;;;;;;;8.50;6.60;;;;;;;22.13;78.79;100572.73;130626;1259;99046;-77
2023/08/21 01:51:35;;;;;;;7.20;6.50;;;;;;;22.08;78.72;100574.95;130563;1257;99116;-77
2023/08/21 01:54:42;;;;;;;6.90;6.20;;;;;;;22.01;78.94;100575.59;130555;1268;97971;-77
2023/08/21 01:57:47;;;;;;;9.30;6.30;;;;;;;21.97;79.18;100574.32;130503;1259;99023;-78
2023/08/21 02:00:53;;;;;;;6.50;5.90;;;;;;;21.95;79.30;100566.48;130593;1262;99141;-77
2023/08/21 02:03:59;;;;;;;7.40;6.60;;;;;;;21.92;79.32;100572.60;130513;1260;98840;-77
2023/08/21 02:07:05;;;;;;;6.80;6.20;;;;;;;21.86;79.26;100578.04;130426;1259;98126;-77
2023/08/21 02:10:13;;;;;;;7.20;6.50;;;;;;;21.82;79.47;100583.80;130591;1256;99030;-77
2023/08/21 02:13:19;;;;;;;7.30;6.50;;;;;;;21.73;79.50;100584.43;130537;1259;98649;-77
2023/08/21 02:16:25;;;;;;;8.00;6.60;;;;;;;21.68;79.53;100582.67;130477;1260;97984;-77
2023/08/21 02:19:32;;;;;;;6.50;5.90;;;;;;;21.66;79.63;100575.98;130549;1259;97976;-76
2023/08/21 02:22:37;;;;;;;7.10;6.10;;;;;;;21.64;79.62;100564.44;130679;1256;97976;-77
2023/08/21 02:25:43;;;;;;;7.10;6.40;;;;;;;21.62;79.66;100565.95;130537;1258;98040;-76
2023/08/21 02:28:50;;;;;;;7.60;6.90;;;;;;;21.59;79.69;100567.11;130511;1256;98693;-77
2023/08/21 02:31:56;;;;;;;6.90;6.30;;;;;;;21.43;79.77;100564.74;130542;1259;98767;-77
2023/08/21 02:35:02;;;;;;;6.30;5.60;;;;;;;21.34;80.06;100562.36;130613;1260;99006;-76
2023/08/21 02:38:08;;;;;;;6.50;5.90;;;;;;;21.32;80.02;100562.54;130555;1256;98045;-77
2023/08/21 02:41:15;;;;;;;7.10;6.30;;;;;;;21.32;80.06;100557.17;130527;1258;97963;-77
2023/08/21 02:44:20;;;;;;;7.70;6.80;;;;;;;21.28;80.05;100559.52;130616;1256;97986;-76
2023/08/21 02:47:26;;;;;;;7.60;6.80;;;;;;;21.24;80.19;100560.95;130571;1256;97959;-78
2023/08/21 02:50:32;;;;;;;6.90;6.20;;;;;;;21.20;80.20;100563.35;130615;1259;99049;-77
2023/08/21 02:53:40;;;;;;;6.10;5.50;;;;;;;21.16;80.23;100565.16;130522;1259;98044;-77
2023/08/21 02:56:48;;;;;;;7.00;6.30;;;;;;;21.13;80.26;100563.41;130549;1256;99013;-78
2023/08/21 02:59:54;;;;;;;7.20;6.50;;;;;;;21.13;80.34;100559.02;130620;1257;98677;-78
2023/08/21 03:02:59;;;;;;;6.90;6.30;;;;;;;21.15;80.55;100557.61;130527;1256;99027;-77
2023/08/21 03:06:05;;;;;;;7.10;6.40;;;;;;;21.18;80.52;100555.30;130888;1259;98275;-78
2023/08/21 03:09:10;;;;;;;7.50;6.70;;;;;;;21.19;80.83;100557.30;130460;1256;97967;-78
2023/08/21 03:12:16;;;;;;;7.80;5.50;;;;;;;21.18;80.70;100558.18;130540;1256;98127;-78
2023/08/21 03:15:21;;;;;;;7.00;6.30;;;;;;;21.18;80.74;100560.30;130602;1259;98329;-78
2023/08/21 03:18:31;;;;;;;6.80;6.10;;;;;;;21.20;80.79;100561.73;130488;1261;99138;-78
2023/08/21 03:21:37;;;;;;;7.40;6.70;;;;;;;21.19;80.79;100559.63;130605;1261;98382;-78
2023/08/21 03:24:43;;;;;;;8.60;7.40;;;;;;;21.18;80.93;100559.80;130436;1259;98986;-78
2023/08/21 03:27:49;;;;;;;7.80;6.50;;;;;;;21.19;80.97;100562.93;130393;1262;98000;-79
2023/08/21 03:30:56;;;;;;;7.60;6.80;;;;;;;21.17;81.01;100560.71;130431;1257;98401;-78
2023/08/21 03:34:02;;;;;;;8.10;6.80;;;;;;;21.15;81.08;100559.14;130565;1256;98297;-78
2023/08/21 03:37:07;;;;;;;8.80;7.80;;;;;;;21.12;81.52;100558.99;130608;1259;99176;-78
2023/08/21 03:40:14;;;;;;;10.10;8.20;;;;;;;21.09;81.66;100561.17;130590;1255;97955;-78
2023/08/21 03:43:20;;;;;;;9.70;7.90;;;;;;;21.05;82.41;100561.61;130593;1259;99049;-79
2023/08/21 03:46:26;;;;;;;9.30;8.30;;;;;;;21.00;83.79;100559.00;130647;1259;98009;-78
2023/08/21 03:49:33;;;;;;;11.10;8.50;;;;;;;20.98;83.21;100556.63;130561;1256;98048;-79
2023/08/21 03:52:39;;;;;;;8.70;7.80;;;;;;;21.02;83.44;100561.55;130497;1256;98049;-78
2023/08/21 03:55:45;;;;;;;9.80;7.70;;;;;;;21.08;83.39;100562.48;130477;1260;97974;-78
2023/08/21 03:58:51;;;;;;;9.10;8.20;;;;;;;21.18;83.25;100569.38;130578;1261;97948;-78
2023/08/21 04:01:56;;;;;;;7.70;7.00;;;;;;;21.30;83.25;100576.24;130591;1259;97974;-78
2023/08/21 04:05:02;;;;;;;9.10;8.20;;;;;;;21.41;83.23;100578.84;130550;1256;98008;-78
2023/08/21 04:08:08;;;;;;;9.70;8.70;;;;;;;21.50;83.37;100583.23;130489;1262;98064;-78
2023/08/21 04:11:13;;;;;;;10.90;8.60;;;;;;;21.57;83.33;100587.03;130484;1259;99052;-78
2023/08/21 04:14:19;;;;;;;10.70;9.30;;;;;;;21.68;83.59;100590.36;130510;1259;98687;-76
2023/08/21 04:17:25;;;;;;;10.10;9.10;;;;;;;21.77;84.20;100595.48;130428;1257;99336;-77
2023/08/21 04:20:30;;;;;;;10.90;9.20;;;;;;;21.76;84.38;100599.91;130486;1259;98011;-76
2023/08/21 04:23:36;;;;;;;9.30;8.40;;;;;;;21.72;84.50;100608.09;130573;1259;99158;-76
2023/08/21 04:26:42;;;;;;;12.30;9.60;;;;;;;21.79;84.65;100609.51;130550;1259;97961;-76
2023/08/21 04:29:47;;;;;;;12.10;9.50;;;;;;;21.84;84.74;100604.79;130549;1259;99131;-77
2023/08/21 04:32:53;;;;;;;11.50;9.50;;;;;;;21.93;84.59;100602.90;130513;1257;97983;-76
2023/08/21 04:35:59;;;;;;;14.50;10.90;;;;;;;21.88;84.78;100606.35;130580;1259;97953;-76
2023/08/21 04:39:05;;;;;;;12.90;10.30;;;;;;;21.76;85.28;100602.71;130500;1259;97980;-76
2023/08/21 04:42:10;;;;;;;12.30;10.90;;;;;;;21.78;85.29;100602.80;130468;1259;98061;-76
2023/08/21 04:45:16;;;;;;;10.80;9.30;;;;;;;21.79;85.42;100599.23;130525;1259;97951;-76
2023/08/21 04:48:23;;;;;;;11.80;9.50;;;;;;;21.83;85.27;100604.92;130573;1259;97987;-76
2023/08/21 04:51:29;;;;;;;12.50;10.40;;;;;;;21.84;85.48;100603.92;130525;1259;98648;-75
2023/08/21 04:54:36;;;;;;;12.90;11.20;;;;;;;21.76;85.89;100594.48;130501;1262;99249;-76
2023/08/21 04:57:42;;;;;;;12.30;9.90;;;;;;;21.67;85.98;100587.14;130645;1259;99164;-76
2023/08/21 05:00:48;;;;;;;10.90;9.80;;;;;;;21.74;85.74;100587.08;130550;1259;98050;-77
2023/08/21 05:03:55;;;;;;;9.80;8.80;;;;;;;21.94;85.83;100588.80;131250;1261;97967;-77
2023/08/21 05:07:01;;;;;;;11.10;8.70;;;;;;;22.18;85.33;100587.80;131212;1259;98018;-76
2023/08/21 05:10:08;;;;;;;11.20;10.10;;;;;;;22.45;85.16;100586.00;130470;1259;98770;-76
2023/08/21 05:13:16;;;;;;;12.00;10.80;;;;;;;22.63;84.75;100592.17;130544;1256;98147;-76
2023/08/21 05:16:22;;;;;;;13.50;11.70;;;;;;;22.43;85.18;100603.63;130597;1259;98034;-76
2023/08/21 05:19:28;;;;;;;16.10;11.30;;;;;;;22.19;86.20;100611.20;130476;1257;98028;-76
2023/08/21 05:22:33;;;;;;;11.90;10.70;;;;;;;21.89;86.71;100619.27;130476;1262;98079;-75
2023/08/21 05:25:39;;;;;;;13.20;11.70;;;;;;;21.80;87.09;100620.80;130433;1261;98745;-75
2023/08/21 05:28:45;;;;;;;12.50;10.10;;;;;;;21.72;87.51;100617.16;130557;1258;98791;-76
2023/08/21 05:31:50;;;;;;;14.40;12.10;;;;;;;21.74;87.70;100634.38;131009;1257;97958;-76
2023/08/21 05:34:56;;;;;;;12.80;11.60;;;;;;;21.60;88.58;100637.86;130576;1256;99138;-77
2023/08/21 05:38:02;;;;;;;15.40;12.90;;;;;;;21.47;88.32;100637.13;130529;1260;98643;-76
2023/08/21 05:41:08;;;;;;;13.50;12.10;;;;;;;21.38;90.22;100652.21;130528;1257;97964;-76
2023/08/21 05:44:13;;;;;;;13.50;12.10;;;;;;;21.29;90.66;100669.92;130469;1257;98363;-76
2023/08/21 05:47:19;;;;;;;13.70;12.30;;;;;;;21.28;90.99;100683.89;130466;1259;98092;-76
2023/08/21 05:50:24;;;;;;;13.00;11.70;;;;;;;21.28;92.84;100700.58;130558;1259;97992;-76
2023/08/21 05:53:30;;;;;;;16.20;14.00;;;;;;;21.12;93.79;100704.31;130498;1259;99141;-76
2023/08/21 05:56:36;;;;;;;14.60;13.00;;;;;;;21.02;93.71;100700.02;130412;1262;98735;-76
2023/08/21 05:59:46;;;;;;;15.30;12.90;;;;;;;20.98;93.60;100708.39;130547;1256;98853;-78
2023/08/21 06:02:51;;;;;;;11.30;10.20;;;;;;;21.05;94.07;100721.65;130572;1259;98732;-77
2023/08/21 06:06:13;;;;;;;10.00;9.00;;;;;;;21.21;92.27;100739.78;130556;1261;98724;-77
2023/08/21 06:09:20;;;;;;;13.70;12.10;;;;;;;21.56;91.48;100761.23;130510;1259;99141;-77
2023/08/21 06:12:25;;;;;;;12.40;11.10;;;;;;;21.61;92.29;100770.04;130518;1259;99254;-76
2023/08/21 06:15:33;;;;;;;10.30;9.30;;;;;;;21.52;92.56;100775.62;130373;1259;97999;-77
2023/08/21 06:18:39;;;;;;;8.90;8.00;;;;;;;21.44;91.81;100774.59;130485;1270;99130;-77
2023/08/21 06:21:44;;;;;;;8.90;7.40;;;;;;;21.60;91.31;100771.89;130318;1257;98006;-80
2023/08/21 06:24:50;;;;;;;8.40;7.60;;;;;;;21.94;90.32;100783.05;130299;1270;98066;-81
2023/08/21 06:27:56;;;;;;;10.00;8.00;;;;;;;22.19;89.67;100783.08;130443;1260;98020;-77
2023/08/21 06:31:03;;;;;;;8.80;7.90;;;;;;;22.39;89.02;100798.39;130501;1260;98729;-79
2023/08/21 06:34:09;;;;;;;8.30;7.50;;;;;;;22.55;88.87;100800.63;130558;1259;98011;-77
2023/08/21 06:37:15;;;;;;;7.40;6.70;;;;;;;22.68;88.42;100793.38;130599;1259;98740;-82
2023/08/21 06:40:21;;;;;;;12.20;7.40;;;;;;;22.80;88.08;100790.92;130429;1259;97974;-78
2023/08/21 06:43:27;;;;;;;9.00;6.90;;;;;;;22.93;87.84;100781.23;130629;1259;98763;-77
2023/08/21 06:46:36;;;;;;;8.40;7.60;;;;;;;23.03;87.76;100770.48;130822;1256;98094;-78
2023/08/21 06:49:42;;;;;;;7.60;6.70;;;;;;;23.18;87.65;100760.68;131323;1261;98486;-77
2023/08/21 06:52:48;;;;;;;6.20;5.60;;;;;;;23.32;87.27;100748.37;130550;1261;99120;-78
2023/08/21 06:55:54;;;;;;;6.20;5.50;;;;;;;23.34;86.69;100736.73;130550;1257;98732;-79
2023/08/21 06:58:59;;;;;;;7.20;6.40;;;;;;;23.34;86.80;100727.73;130595;1259;98018;-78
2023/08/21 07:02:05;;;;;;;7.70;6.60;;;;;;;23.47;86.73;100726.86;130716;1259;98311;-78
2023/08/21 07:05:11;;;;;;;7.40;6.70;;;;;;;23.64;86.49;100732.20;131595;1256;98003;-79
2023/08/21 07:08:17;;;;;;;8.40;6.00;;;;;;;23.87;86.16;100742.47;130551;1259;98746;-80
2023/08/21 07:11:22;;;;;;;6.10;5.50;;;;;;;24.04;85.83;100747.80;130506;1259;98013;-79
2023/08/21 07:14:28;;;;;;;7.20;5.80;;;;;;;24.16;85.46;100755.14;130568;1260;99193;-79
2023/08/21 07:17:33;;;;;;;6.80;5.90;;;;;;;24.29;85.29;100750.41;130515;1257;97948;-78
2023/08/21 07:20:39;;;;;;;7.10;6.10;;;;;;;24.49;84.97;100747.66;130582;1259;99145;-79
2023/08/21 07:23:45;;;;;;;6.50;5.80;;;;;;;24.61;84.69;100748.80;130613;1259;97966;-79
2023/08/21 07:26:50;;;;;;;6.70;6.10;;;;;;;24.68;84.37;100744.44;130647;1259;97953;-79
2023/08/21 07:29:56;;;;;;;6.30;5.70;;;;;;;24.61;84.42;100736.46;130594;1260;97945;-80
2023/08/21 07:33:02;;;;;;;5.80;5.20;;;;;;;24.61;84.54;100736.90;130576;1257;99043;-78
2023/08/21 07:36:08;;;;;;;6.70;6.10;;;;;;;24.70;84.38;100732.23;130606;1260;99170;-79
2023/08/21 07:39:13;;;;;;;7.00;6.20;;;;;;;24.80;84.03;100726.55;130519;1259;97969;-79
2023/08/21 07:42:19;;;;;;;7.80;7.00;;;;;;;24.76;82.93;100724.50;130549;1260;97947;-78
2023/08/21 07:45:25;;;;;;;8.70;7.10;;;;;;;24.47;83.12;100727.09;130767;1259;98738;-78
2023/08/21 07:48:30;;;;;;;7.40;6.00;;;;;;;24.21;83.99;100726.38;130791;1259;97952;-78
2023/08/21 07:51:36;;;;;;;6.60;5.90;;;;;;;24.20;84.60;100713.00;131349;1259;97933;-79
2023/08/21 07:54:41;;;;;;;8.00;7.30;;;;;;;24.39;84.27;100710.83;131104;1256;97964;-79
2023/08/21 07:57:47;;;;;;;9.70;7.30;;;;;;;24.30;82.90;100715.95;130708;1259;99167;-78
2023/08/21 08:00:53;;;;;;;8.00;5.30;;;;;;;24.14;83.91;100709.96;130639;1259;98031;-79
2023/08/21 08:04:00;;;;;;;9.60;8.60;;;;;;;24.29;83.76;100712.23;131140;1259;97938;-79
2023/08/21 08:07:06;;;;;;;8.40;7.50;;;;;;;23.98;84.51;100713.02;130912;1255;99231;-79
2023/08/21 08:10:11;;;;;;;9.30;8.40;;;;;;;23.76;86.02;100705.02;131387;1259;99132;-79
2023/08/21 08:13:17;;;;;;;9.20;8.30;;;;;;;23.77;86.17;100705.19;131044;1259;97973;-78
2023/08/21 08:16:23;;;;;;;8.90;7.70;;;;;;;23.63;86.70;100709.79;130730;1256;97949;-79
2023/08/21 08:19:28;;;;;;;8.80;7.90;;;;;;;23.52;87.18;100704.17;130909;1259;98009;-78
2023/08/21 08:22:34;;;;;;;8.00;7.30;;;;;;;23.50;87.20;100698.85;130946;1256;97969;-79
2023/08/21 08:25:39;;;;;;;8.00;6.90;;;;;;;23.61;87.25;100695.28;130718;1258;97968;-78
2023/08/21 08:28:45;;;;;;;7.70;6.90;;;;;;;23.66;87.78;100703.17;130881;1259;98034;-77
2023/08/21 08:31:51;;;;;;;7.90;7.20;;;;;;;23.57;87.83;100701.48;131008;1256;98155;-77
2023/08/21 08:34:56;;;;;;;7.50;6.90;;;;;;;23.70;87.75;100699.40;130918;1259;98003;-77
2023/08/21 08:38:02;;;;;;;7.50;6.70;;;;;;;23.71;87.27;100708.31;131072;1259;97961;-77
2023/08/21 08:41:19;;;;;;;8.20;6.70;;;;;;;23.72;86.31;100705.64;130415;1260;97977;-77
2023/08/21 08:44:27;;;;;;;8.30;6.40;;;;;;;23.76;85.99;100700.23;130897;1259;97924;-77
2023/08/21 08:47:36;;;;;;;8.10;7.30;;;;;;;23.70;84.37;100700.23;130824;1259;97944;-77
2023/08/21 08:50:43;;;;;;;8.70;7.10;;;;;;;23.65;85.66;100697.27;130966;1257;97948;-77
2023/08/21 08:53:49;;;;;;;8.20;7.00;;;;;;;23.67;85.64;100686.52;131153;1256;97951;-77
2023/08/21 08:56:55;;;;;;;7.20;6.50;;;;;;;23.81;85.02;100689.71;130927;1257;99150;-77
2023/08/21 09:00:01;;;;;;;8.10;6.70;;;;;;;23.82;84.79;100695.73;130835;1259;97968;-77
2023/08/21 09:03:08;;;;;;;6.70;5.60;;;;;;;23.88;85.34;100690.27;130678;1259;98743;-77
2023/08/21 09:06:14;;;;;;;7.00;6.10;;;;;;;24.08;84.20;100696.40;131009;1259;98060;-79
2023/08/21 09:09:19;;;;;;;6.70;6.00;;;;;;;24.21;84.35;100693.73;130992;1259;97963;-78
2023/08/21 09:12:25;;;;;;;6.60;6.00;;;;;;;24.32;83.26;100695.70;130600;1259;97947;-79
2023/08/21 09:15:32;;;;;;;7.50;6.80;;;;;;;24.31;82.38;100692.73;130832;1260;99346;-81
2023/08/21 09:18:39;;;;;;;6.90;6.20;;;;;;;24.36;83.27;100692.16;131018;1261;97951;-78
2023/08/21 09:21:45;;;;;;;7.00;6.40;;;;;;;24.47;82.03;100700.42;130642;1259;98020;-78
2023/08/21 09:25:06;;;;;;;7.90;7.10;;;;;;;24.51;81.58;100704.88;130891;1260;98740;-79
2023/08/21 09:28:10;;;;;;;;;;;;;;;24.52;81.16;100707.71;131000;1259;97962;-78
2023/08/21 09:31:16;;;;;;;7.00;6.30;;;;;;;24.59;81.44;100707.88;130534;1259;98749;-79
2023/08/21 09:34:24;;;;;;;6.00;5.40;;;;;;;24.64;79.23;100703.04;130711;1257;98042;-80
2023/08/21 09:37:31;;;;;;;6.70;6.00;;;;;;;24.66;77.03;100696.99;130686;1259;97972;-79
2023/08/21 09:40:39;;;;;;;7.40;6.70;;;;;;;24.69;77.15;100693.12;131196;1259;99196;-79
2023/08/21 09:43:45;;;;;;;7.90;6.50;;;;;;;24.74;77.15;100691.11;130832;1259;98857;-80
2023/08/21 09:46:52;;;;;;;6.40;5.50;;;;;;;24.71;72.75;100695.61;130862;1259;98077;-79
2023/08/21 09:49:57;;;;;;;7.90;5.60;;;;;;;24.71;72.65;100693.77;131024;1259;99165;-79
2023/08/21 09:53:03;;;;;;;6.40;5.70;;;;;;;24.72;70.01;100695.89;130664;1260;99148;-82
2023/08/21 09:56:10;;;;;;;6.70;6.10;;;;;;;24.75;72.62;100687.53;130663;1260;98034;-82
2023/08/21 09:59:17;;;;;;;6.50;5.90;;;;;;;24.79;71.89;100685.86;130641;1259;99190;-79
2023/08/21 10:02:24;;;;;;;6.40;5.80;;;;;;;24.80;72.14;100680.88;130887;1260;99244;-80
2023/08/21 10:05:31;;;;;;;5.60;5.10;;;;;;;24.89;71.81;100683.15;131333;1258;98079;-82
2023/08/21 10:08:40;;;;;;;5.30;4.60;;;;;;;24.94;69.12;100687.27;130876;1261;99253;-80
2023/08/21 10:11:46;;;;;;;5.50;4.90;;;;;;;24.99;67.89;100687.55;130934;1259;99104;-80
2023/08/21 10:14:52;;;;;;;5.20;4.70;;;;;;;25.04;68.17;100687.38;131177;1259;98043;-77
2023/08/21 10:17:59;;;;;;;5.00;4.60;;;;;;;25.10;68.68;100688.77;132097;1260;99131;-78
2023/08/21 10:21:15;;;;;;;5.90;4.50;;;;;;;25.17;64.21;100690.38;130606;1258;98028;-79
2023/08/21 10:24:34;;;;;;;5.40;4.90;;;;;;;25.15;63.84;100684.45;130636;1266;97948;-80
2023/08/21 10:27:41;;;;;;;4.50;4.10;;;;;;;25.15;64.49;100679.14;132081;1259;97948;-79
2023/08/21 10:30:47;;;;;;;4.90;4.10;;;;;;;25.23;65.87;100674.98;130832;1263;99324;-80
2023/08/21 10:33:53;;;;;;;4.80;4.40;;;;;;;25.35;65.94;100675.77;131620;1259;99057;-80
2023/08/21 10:37:13;;;;;;;4.50;4.10;;;;;;;25.42;65.13;100672.39;131210;1258;99170;-79
2023/08/21 10:40:26;;;;;;;4.50;4.10;;;;;;;25.46;63.30;100675.80;130888;1260;97964;-79
